Time;durP1;ratioP1;P1;durP2;ratioP2;P2;SDS_P1;SDS_P2;PMS_P1;PMS_P2;Temp;Humidity;BMP_temperature;BMP_pressure;BME280_temperature;BME280_humidity;BME280_pressure;Samples;Min_cycle;Max_cycle;Signal;HPM_P1;HPM_P2
2022/05/27 00:02:50;;;;;;;;;;;;;;;;;;;;;
2022/05/27 00:09:40;;;;;;;4.20;2.25;;;16.00;99.90;;;;;;4931734;28;20212;-81
2022/05/27 00:16:45;;;;;;;4.15;2.20;;;16.00;99.90;;;;;;4984871;28;20209;-81
2022/05/27 00:20:13;;;;;;;2.58;2.10;;;16.10;99.90;;;;;;4973915;28;20189;-81
2022/05/27 00:34:15;;;;;;;;;;;;;;;;;;;;;
2022/05/27 00:49:17;;;;;;;;;;;;;;;;;;;;;
2022/05/27 00:52:45;;;;;;;;;;;;;;;;;;;;;
2022/05/27 00:56:11;;;;;;;5.40;3.20;;;15.10;99.90;;;;;;4929105;29;20202;-80
2022/05/27 00:59:12;;;;;;;4.07;3.78;;;15.10;99.90;;;;;;4896037;29;20826;-81
2022/05/27 01:03:02;;;;;;;5.50;3.30;;;15.10;99.90;;;;;;4919390;29;20263;-80
2022/05/27 01:06:23;;;;;;;3.67;2.95;;;15.30;99.90;;;;;;4907286;29;20204;-80
2022/05/27 01:10:20;;;;;;;;;;;;;;;;;;;;;
2022/05/27 01:14:02;;;;;;;3.10;2.83;;;15.40;99.90;;;;;;4935617;28;20192;-80
2022/05/27 01:29:07;;;;;;;4.15;3.67;;;15.30;99.90;;;;;;4826337;29;20221;-81
2022/05/27 01:32:34;;;;;;;3.63;3.30;;;15.10;99.90;;;;;;4762447;29;20219;-80
2022/05/27 02:19:06;;;;;;;6.55;4.90;;;14.80;99.90;;;;;;4823676;29;20236;-81
2022/05/27 02:23:05;;;;;;;6.80;5.35;;;14.70;99.90;;;;;;4957482;28;20706;-81
2022/05/27 02:25:52;;;;;;;7.30;5.43;;;14.70;99.90;;;;;;4964996;28;20208;-81
2022/05/27 02:28:24;;;;;;;6.47;5.78;;;14.70;99.90;;;;;;4977334;28;20564;-81
2022/05/27 02:31:35;;;;;;;8.27;5.65;;;14.80;99.90;;;;;;4970217;28;20212;-81
2022/05/27 02:42:33;;;;;;;8.48;6.35;;;14.60;99.90;;;;;;4981999;28;20205;-83
2022/05/27 03:00:46;;;;;;;;;;;;;;;;;;;;;
2022/05/27 03:07:48;;;;;;;9.73;7.45;;;14.40;99.90;;;;;;4847281;29;20251;-80
2022/05/27 03:10:36;;;;;;;8.32;7.45;;;14.30;99.90;;;;;;4976409;28;20204;-81
2022/05/27 03:13:21;;;;;;;10.40;6.90;;;14.40;99.90;;;;;;4973830;28;20197;-81
2022/05/27 03:16:06;;;;;;;7.70;6.63;;;14.60;99.90;;;;;;4977346;28;20200;-81
2022/05/27 03:19:01;;;;;;;9.55;7.25;;;14.60;99.90;;;;;;4970981;28;20314;-81
2022/05/27 03:21:34;;;;;;;8.15;6.95;;;14.50;99.90;;;;;;4977790;28;20672;-81
2022/05/27 03:24:26;;;;;;;9.10;7.30;;;14.50;99.90;;;;;;4972319;28;20219;-81
2022/05/27 03:27:06;;;;;;;7.68;6.88;;;14.40;99.90;;;;;;4968734;28;20225;-81
2022/05/27 03:29:38;;;;;;;8.70;7.35;;;14.30;99.90;;;;;;4975430;28;20565;-81
2022/05/27 03:32:13;;;;;;;7.07;6.38;;;14.30;99.90;;;;;;4965160;28;20204;-79
2022/05/27 03:34:48;;;;;;;6.72;6.03;;;14.20;99.90;;;;;;4963171;28;20211;-79
2022/05/27 03:37:23;;;;;;;7.40;6.30;;;14.20;99.90;;;;;;4971066;28;20227;-79
2022/05/27 03:39:59;;;;;;;5.97;5.47;;;14.20;99.90;;;;;;4959282;28;20197;-79
2022/05/27 03:42:31;;;;;;;6.50;5.28;;;14.20;99.90;;;;;;4964472;28;20196;-79
2022/05/27 03:45:04;;;;;;;4.75;4.32;;;14.10;99.90;;;;;;4986990;28;20302;-79
2022/05/27 03:47:36;;;;;;;4.70;3.10;;;14.10;99.90;;;;;;4959611;28;20224;-79
2022/05/27 03:50:05;;;;;;;5.97;2.53;;;13.90;99.90;;;;;;4967978;28;20204;-81
2022/05/27 03:52:38;;;;;;;3.63;2.53;;;13.80;99.90;;;;;;4962777;28;20207;-81
2022/05/27 03:55:09;;;;;;;2.80;2.60;;;13.80;99.90;;;;;;4981414;28;20199;-81
2022/05/27 03:57:37;;;;;;;4.47;2.63;;;13.70;99.90;;;;;;4960764;28;20222;-79
2022/05/27 04:00:05;;;;;;;3.72;2.30;;;13.90;99.90;;;;;;4957512;28;20204;-79
2022/05/27 04:02:40;;;;;;;3.60;2.42;;;13.90;99.90;;;;;;4977100;28;20212;-79
2022/05/27 04:05:09;;;;;;;2.33;2.13;;;14.00;99.90;;;;;;4956919;28;20213;-79
2022/05/27 04:07:37;;;;;;;4.95;2.50;;;14.00;99.90;;;;;;4964740;28;20212;-79
2022/05/27 04:10:08;;;;;;;3.58;2.97;;;14.00;99.90;;;;;;4960874;28;20209;-79
2022/05/27 04:12:36;;;;;;;5.93;2.88;;;14.00;99.90;;;;;;4963973;28;20212;-79
2022/05/27 04:15:06;;;;;;;4.40;2.67;;;14.00;99.90;;;;;;4965279;28;20541;-79
2022/05/27 04:17:33;;;;;;;2.85;2.63;;;13.90;99.90;;;;;;4963496;28;20725;-79
2022/05/27 04:20:03;;;;;;;4.20;3.80;;;14.00;99.90;;;;;;4985841;28;20224;-79
2022/05/27 04:22:30;;;;;;;5.72;4.00;;;14.00;99.90;;;;;;4972029;28;20205;-81
2022/05/27 04:24:58;;;;;;;7.18;4.35;;;13.80;99.90;;;;;;4969121;28;20206;-79
2022/05/27 04:27:27;;;;;;;6.20;4.70;;;13.80;99.90;;;;;;4958276;28;20224;-78
2022/05/27 04:29:55;;;;;;;5.82;4.10;;;13.70;99.90;;;;;;4962311;28;20198;-81
2022/05/27 04:32:25;;;;;;;7.80;4.65;;;13.70;99.90;;;;;;4977139;28;20204;-81
2022/05/27 04:34:53;;;;;;;6.32;5.25;;;13.70;99.90;;;;;;4963753;28;20220;-79
2022/05/27 04:37:21;;;;;;;7.60;5.38;;;13.60;99.90;;;;;;4974007;28;20220;-79
2022/05/27 04:39:49;;;;;;;5.18;4.53;;;13.70;99.90;;;;;;4972130;28;20201;-80
2022/05/27 04:42:21;;;;;;;5.45;4.53;;;13.60;99.90;;;;;;4969493;28;20205;-81
2022/05/27 04:44:50;;;;;;;5.32;4.85;;;13.50;99.90;;;;;;4959338;28;20209;-81
2022/05/27 04:47:18;;;;;;;5.90;5.30;;;13.70;99.90;;;;;;4973461;28;20216;-79
2022/05/27 04:49:54;;;;;;;5.95;5.40;;;13.70;99.90;;;;;;4970211;28;20631;-79
2022/05/27 04:52:24;;;;;;;6.75;6.05;;;13.70;99.90;;;;;;4972135;28;20200;-79
2022/05/27 04:54:53;;;;;;;7.40;6.68;;;13.70;99.90;;;;;;4965707;28;20205;-79
2022/05/27 04:57:33;;;;;;;8.10;5.68;;;13.80;99.90;;;;;;4949758;28;20224;-79
2022/05/27 05:00:05;;;;;;;6.43;5.82;;;13.80;99.90;;;;;;4971840;28;20209;-79
2022/05/27 05:02:33;;;;;;;6.55;5.95;;;13.70;99.90;;;;;;4962168;28;20208;-80
2022/05/27 05:05:07;;;;;;;7.70;6.90;;;13.60;99.90;;;;;;4980570;28;20212;-80
2022/05/27 05:07:36;;;;;;;7.50;6.82;;;13.60;99.90;;;;;;4976072;28;20228;-80
2022/05/27 05:10:13;;;;;;;8.23;7.40;;;13.70;99.90;;;;;;4966556;28;20189;-80
2022/05/27 05:12:41;;;;;;;7.68;6.88;;;13.60;99.90;;;;;;4968843;28;20217;-80
2022/05/27 05:15:11;;;;;;;8.43;7.03;;;13.70;99.90;;;;;;4971910;28;20204;-80
2022/05/27 05:17:39;;;;;;;8.65;7.47;;;13.70;99.90;;;;;;4965299;28;20229;-80
2022/05/27 05:20:16;;;;;;;8.98;7.88;;;13.70;99.90;;;;;;4961136;28;20201;-80
2022/05/27 05:22:44;;;;;;;8.75;6.90;;;13.70;99.90;;;;;;4955936;28;20200;-79
2022/05/27 05:25:12;;;;;;;8.93;6.57;;;13.60;99.90;;;;;;4960728;28;20201;-79
2022/05/27 05:27:41;;;;;;;9.35;6.78;;;13.70;99.90;;;;;;4959418;28;20248;-79
2022/05/27 05:30:14;;;;;;;7.90;5.68;;;13.70;99.90;;;;;;4952237;28;20193;-79
2022/05/27 05:32:44;;;;;;;6.60;5.80;;;13.70;99.90;;;;;;4984571;28;20203;-79
2022/05/27 05:35:13;;;;;;;7.53;5.18;;;13.90;99.90;;;;;;4964041;28;20208;-80
2022/05/27 05:37:41;;;;;;;7.18;5.68;;;13.80;99.90;;;;;;4975008;28;20223;-80
2022/05/27 05:40:10;;;;;;;8.55;5.50;;;13.80;99.90;;;;;;4963238;28;20212;-80
2022/05/27 05:42:39;;;;;;;8.13;5.60;;;13.80;99.90;;;;;;4967112;28;20197;-79
2022/05/27 05:45:07;;;;;;;8.55;5.90;;;13.90;99.90;;;;;;4963190;28;20211;-81
2022/05/27 05:50:33;;;;;;;8.00;6.25;;;14.10;99.90;;;;;;4903927;29;20240;-80
2022/05/27 05:53:06;;;;;;;7.85;6.15;;;13.90;99.90;;;;;;4930260;28;20210;-78
2022/05/27 05:55:37;;;;;;;7.10;6.40;;;13.90;99.90;;;;;;4964027;28;20211;-80
2022/05/27 05:58:34;;;;;;;9.90;5.82;;;13.90;99.90;;;;;;4962464;28;20216;-80
2022/05/27 06:02:05;;;;;;;;;;;;;;;;;;;;;
2022/05/27 06:11:52;;;;;;;6.55;5.43;;;14.10;99.90;;;;;;4912372;29;20339;-80
2022/05/27 06:14:53;;;;;;;6.93;5.28;;;14.20;99.90;;;;;;4889299;29;20199;-81
2022/05/27 06:20:09;;;;;;;8.10;5.65;;;14.30;99.90;;;;;;4976305;28;20216;-83
2022/05/27 06:22:37;;;;;;;8.38;6.03;;;14.10;99.90;;;;;;4971914;28;20207;-82
2022/05/27 06:25:06;;;;;;;10.45;6.53;;;14.20;99.90;;;;;;4995012;28;20209;-82
2022/05/27 06:27:36;;;;;;;7.65;6.10;;;14.20;99.90;;;;;;4983372;28;20213;-82
2022/05/27 06:35:58;;;;;;;6.60;5.88;;;14.60;99.90;;;;;;4984729;28;20194;-82
2022/05/27 06:38:29;;;;;;;8.38;6.40;;;14.70;99.90;;;;;;4957952;28;20213;-82
2022/05/27 06:41:23;;;;;;;7.65;5.78;;;14.80;99.90;;;;;;4952938;29;20194;-82
2022/05/27 06:43:55;;;;;;;10.30;6.10;;;14.80;99.90;;;;;;4953409;29;20202;-82
2022/05/27 06:46:38;;;;;;;8.20;5.85;;;15.00;99.90;;;;;;4984379;28;20211;-82
2022/05/27 06:49:25;;;;;;;10.52;6.30;;;15.20;99.90;;;;;;4951485;29;20208;-82
2022/05/27 06:52:12;;;;;;;10.43;5.88;;;15.20;99.90;;;;;;4983220;28;20208;-82
2022/05/27 06:55:09;;;;;;;7.25;6.32;;;15.30;99.90;;;;;;4944738;29;20675;-82
2022/05/27 06:58:12;;;;;;;10.93;6.38;;;15.30;99.90;;;;;;4963904;29;20229;-82
2022/05/27 07:04:44;;;;;;;;;;;;;;;;;;;;;
2022/05/27 07:10:33;;;;;;;7.93;5.60;;;15.30;99.90;;;;;;4954354;29;20197;-82
2022/05/27 07:13:03;;;;;;;12.05;6.30;;;15.40;99.90;;;;;;4969011;29;20189;-82
2022/05/27 07:15:53;;;;;;;12.30;5.85;;;15.40;99.90;;;;;;4976718;28;20197;-82
2022/05/27 07:18:29;;;;;;;12.75;6.60;;;15.50;99.90;;;;;;4964345;28;20229;-82
2022/05/27 07:21:25;;;;;;;8.75;5.28;;;15.60;99.90;;;;;;4956446;28;20185;-82
2022/05/27 07:26:59;;;;;;;8.27;5.50;;;15.40;99.90;;;;;;4935476;28;20217;-82
2022/05/27 07:30:20;;;;;;;9.65;6.15;;;15.30;99.90;;;;;;4983038;28;20194;-81
2022/05/27 07:32:50;;;;;;;9.18;6.00;;;15.40;99.90;;;;;;4932275;29;20474;-82
2022/05/27 07:35:28;;;;;;;10.52;5.68;;;15.40;99.90;;;;;;4940535;29;20208;-82
2022/05/27 07:38:07;;;;;;;13.57;5.35;;;15.30;99.90;;;;;;4958155;28;20217;-81
2022/05/27 07:40:49;;;;;;;7.47;5.47;;;15.40;99.90;;;;;;4983069;28;20236;-82
2022/05/27 07:43:27;;;;;;;10.27;4.88;;;15.40;99.90;;;;;;4984826;28;20201;-82
2022/05/27 07:46:40;;;;;;;7.75;4.72;;;15.60;99.90;;;;;;4990425;28;20210;-81
2022/05/27 07:49:39;;;;;;;7.90;4.65;;;15.80;99.90;;;;;;4983558;28;20200;-82
2022/05/27 07:52:25;;;;;;;6.90;4.85;;;15.80;99.90;;;;;;4931228;29;20200;-82
2022/05/27 08:06:05;;;;;;;7.32;4.50;;;16.00;99.90;;;;;;4867261;29;20212;-81
2022/05/27 08:16:04;;;;;;;8.35;4.45;;;16.50;99.90;;;;;;4900109;29;20291;-81
2022/05/27 08:18:53;;;;;;;8.50;4.70;;;16.20;99.90;;;;;;4935050;29;20238;-81
2022/05/27 08:33:11;;;;;;;7.25;4.03;;;16.60;99.90;;;;;;4927906;29;20214;-81
2022/05/27 08:43:36;;;;;;;8.55;3.95;;;16.50;99.90;;;;;;4927761;29;20536;-81
2022/05/27 08:46:49;;;;;;;;;;;;;;;;;;;;;
2022/05/27 08:50:29;;;;;;;6.45;3.65;;;16.30;99.90;;;;;;4958526;29;20198;-81
2022/05/27 09:30:56;;;;;;;5.28;2.90;;;16.80;99.90;;;;;;5025565;23;20232;-81
2022/05/27 09:48:54;;;;;;;5.75;3.05;;;16.90;99.90;;;;;;5112863;22;20230;-81
2022/05/27 09:51:34;;;;;;;4.70;2.70;;;17.00;99.90;;;;;;4984976;28;20196;-81
2022/05/27 09:58:04;;;;;;;5.00;2.92;;;16.70;99.90;;;;;;4924679;29;20235;-81
2022/05/27 10:00:44;;;;;;;7.18;3.50;;;16.80;99.80;;;;;;4964489;28;20221;-82
2022/05/27 10:03:27;;;;;;;7.82;3.05;;;16.90;99.00;;;;;;4953397;29;20198;-82
2022/05/27 10:05:58;;;;;;;8.10;3.60;;;16.90;98.30;;;;;;4952333;28;20201;-83
2022/05/27 10:08:37;;;;;;;7.05;3.10;;;16.80;98.70;;;;;;4943091;28;20225;-81
2022/05/27 10:11:13;;;;;;;5.90;2.63;;;16.90;98.00;;;;;;4943763;28;20208;-81
2022/05/27 10:14:06;;;;;;;9.52;3.30;;;17.00;98.20;;;;;;4969043;28;20189;-83
2022/05/27 10:17:27;;;;;;;5.95;3.20;;;16.90;98.20;;;;;;4956660;28;20205;-81
2022/05/27 10:24:39;;;;;;;6.35;2.65;;;17.20;98.40;;;;;;4899750;28;20218;-83
2022/05/27 10:30:41;;;;;;;6.50;3.20;;;16.90;96.40;;;;;;4889751;28;20203;-82
2022/05/27 10:33:50;;;;;;;6.47;3.13;;;16.90;96.20;;;;;;4948122;28;20201;-82
2022/05/27 10:36:50;;;;;;;6.63;2.97;;;17.10;96.00;;;;;;4954747;28;20209;-82
2022/05/27 10:39:47;;;;;;;9.27;3.35;;;17.10;95.30;;;;;;4943266;28;20197;-82
2022/05/27 10:42:58;;;;;;;5.50;2.92;;;17.10;95.10;;;;;;4953927;29;20194;-83
2022/05/27 10:45:35;;;;;;;6.95;3.47;;;17.40;95.00;;;;;;4951727;29;20202;-83
2022/05/27 10:48:52;;;;;;;6.22;3.00;;;17.50;95.30;;;;;;4978113;28;20225;-81
2022/05/27 10:51:40;;;;;;;5.57;2.60;;;17.70;94.30;;;;;;4946278;29;20205;-82
2022/05/27 10:54:22;;;;;;;7.28;2.80;;;17.90;94.00;;;;;;4950571;29;20211;-81
2022/05/27 11:03:03;;;;;;;6.93;2.80;;;17.90;94.30;;;;;;4966170;29;20208;-80
2022/05/27 11:05:47;;;;;;;8.27;3.67;;;18.00;93.00;;;;;;4966198;29;20197;-81
2022/05/27 11:08:33;;;;;;;7.00;2.97;;;18.00;93.40;;;;;;4939446;29;20221;-80
2022/05/27 11:11:18;;;;;;;6.50;3.00;;;18.00;92.80;;;;;;4965413;29;20209;-82
2022/05/27 11:17:07;;;;;;;6.57;2.80;;;17.80;91.80;;;;;;4977109;28;20270;-80
2022/05/27 11:20:01;;;;;;;8.65;2.80;;;18.20;92.40;;;;;;4963849;28;20210;-81
2022/05/27 11:22:53;;;;;;;6.68;2.53;;;18.40;91.30;;;;;;4965227;28;20202;-83
2022/05/27 11:26:20;;;;;;;9.43;2.90;;;18.20;91.20;;;;;;4965188;29;20201;-84
2022/05/27 11:29:30;;;;;;;9.00;3.35;;;18.30;92.00;;;;;;4928270;29;20210;-82
2022/05/27 11:32:05;;;;;;;7.25;2.97;;;17.90;91.80;;;;;;4948686;29;20209;-83
2022/05/27 11:34:40;;;;;;;5.40;3.05;;;17.90;91.70;;;;;;4955791;28;20198;-80
2022/05/27 11:37:25;;;;;;;6.00;2.45;;;18.00;92.50;;;;;;4953592;29;20310;-82
2022/05/27 11:40:10;;;;;;;6.82;3.05;;;17.60;91.30;;;;;;4959437;28;20205;-82
2022/05/27 11:43:00;;;;;;;7.10;2.72;;;17.40;91.40;;;;;;4945160;28;20210;-80
2022/05/27 11:46:00;;;;;;;8.95;2.53;;;17.70;91.50;;;;;;4966581;28;20202;-80
2022/05/27 11:51:54;;;;;;;6.18;2.83;;;18.30;85.10;;;;;;4951465;29;20210;-82
2022/05/27 11:54:43;;;;;;;8.18;2.63;;;18.20;84.00;;;;;;4947964;29;20223;-82
2022/05/27 11:57:26;;;;;;;7.63;2.47;;;18.60;84.50;;;;;;4954057;28;20220;-80
2022/05/27 12:00:03;;;;;;;6.35;2.53;;;18.60;84.10;;;;;;4950974;29;20204;-80
2022/05/27 12:02:48;;;;;;;5.13;2.38;;;19.00;82.50;;;;;;4968050;28;20202;-81
2022/05/27 12:05:22;;;;;;;5.57;2.35;;;19.20;80.90;;;;;;4960941;29;20198;-81
2022/05/27 12:07:56;;;;;;;6.05;2.38;;;19.00;79.30;;;;;;4944988;28;20234;-81
2022/05/27 12:10:41;;;;;;;9.25;2.85;;;19.30;76.80;;;;;;4952166;28;20202;-81
2022/05/27 12:13:16;;;;;;;5.38;2.35;;;19.40;75.10;;;;;;4937578;29;20205;-81
2022/05/27 12:15:48;;;;;;;7.55;3.17;;;19.00;73.50;;;;;;4944222;28;20205;-80
2022/05/27 12:18:23;;;;;;;5.60;2.35;;;18.90;75.90;;;;;;4954837;28;20220;-80
2022/05/27 12:20:51;;;;;;;6.22;2.50;;;19.20;77.00;;;;;;4966251;28;20228;-81
2022/05/27 12:23:23;;;;;;;6.25;2.40;;;19.30;76.70;;;;;;4961662;28;20201;-81
2022/05/27 12:25:59;;;;;;;7.38;3.10;;;19.50;73.80;;;;;;4965713;28;20208;-81
2022/05/27 12:28:30;;;;;;;12.25;3.42;;;18.90;77.10;;;;;;4945968;28;20313;-81
2022/05/27 12:30:59;;;;;;;6.05;2.58;;;18.70;81.60;;;;;;4945891;28;20206;-80
2022/05/27 12:33:34;;;;;;;7.88;2.83;;;18.80;82.70;;;;;;4943610;28;20202;-80
2022/05/27 12:36:04;;;;;;;7.35;3.45;;;18.80;82.80;;;;;;4941490;28;20204;-79
2022/05/27 12:38:35;;;;;;;7.85;3.30;;;19.00;82.00;;;;;;4947797;29;20229;-80
2022/05/27 12:41:05;;;;;;;9.00;3.17;;;19.30;80.80;;;;;;4964901;28;20236;-80
2022/05/27 12:43:36;;;;;;;7.78;2.50;;;19.60;81.20;;;;;;4958520;28;20198;-80
2022/05/27 12:46:31;;;;;;;5.53;2.72;;;19.80;80.70;;;;;;4945653;28;20202;-80
2022/05/27 12:49:32;;;;;;;5.38;3.05;;;19.50;77.70;;;;;;4966959;28;20708;-80
2022/05/27 12:51:59;;;;;;;7.57;2.30;;;19.30;76.60;;;;;;4962114;28;20202;-81
2022/05/27 12:55:02;;;;;;;5.72;2.20;;;19.20;79.20;;;;;;4958597;28;20206;-81
2022/05/27 13:00:59;;;;;;;7.18;2.95;;;19.30;76.90;;;;;;4953679;28;20197;-80
2022/05/27 13:03:50;;;;;;;5.35;2.83;;;19.00;71.60;;;;;;4953201;29;20205;-81
2022/05/27 13:06:39;;;;;;;7.38;2.28;;;19.50;72.20;;;;;;4969271;28;20208;-81
2022/05/27 13:09:10;;;;;;;8.05;2.45;;;19.60;69.20;;;;;;4961543;28;20204;-80
2022/05/27 13:11:46;;;;;;;6.50;2.63;;;19.10;67.20;;;;;;4963936;28;20205;-81
2022/05/27 13:14:18;;;;;;;5.55;2.75;;;19.10;67.50;;;;;;4964922;28;20201;-80
2022/05/27 13:16:50;;;;;;;5.78;2.67;;;19.00;68.80;;;;;;4954329;28;20209;-80
2022/05/27 13:19:32;;;;;;;5.72;2.38;;;18.80;69.10;;;;;;4947316;28;20202;-81
2022/05/27 13:22:03;;;;;;;5.93;2.63;;;18.90;68.10;;;;;;4955547;28;20220;-80
2022/05/27 13:24:34;;;;;;;5.80;1.77;;;19.00;67.80;;;;;;4943812;29;20214;-80
2022/05/27 13:27:11;;;;;;;5.68;2.28;;;19.20;60.60;;;;;;4947562;28;20739;-80
2022/05/27 13:29:50;;;;;;;4.35;2.15;;;19.10;60.00;;;;;;4958065;28;20236;-82
2022/05/27 13:32:22;;;;;;;5.32;2.20;;;19.00;64.60;;;;;;4955082;28;20197;-81
2022/05/27 13:35:23;;;;;;;8.02;2.72;;;18.80;66.40;;;;;;4953086;28;20209;-81
2022/05/27 13:37:56;;;;;;;9.82;2.60;;;19.30;65.90;;;;;;4961686;28;20227;-80
2022/05/27 13:40:30;;;;;;;6.90;2.35;;;19.30;64.80;;;;;;4970026;28;20208;-82
2022/05/27 13:43:01;;;;;;;7.80;2.60;;;19.20;62.20;;;;;;4960019;28;20240;-82
2022/05/27 13:45:37;;;;;;;4.78;2.00;;;19.50;60.80;;;;;;4942971;29;20210;-80
2022/05/27 13:48:10;;;;;;;4.63;1.70;;;19.50;61.00;;;;;;4954364;28;20224;-80
2022/05/27 13:51:09;;;;;;;10.50;2.33;;;19.40;59.40;;;;;;4978491;28;20201;-80
2022/05/27 13:53:59;;;;;;;6.10;2.17;;;19.40;57.80;;;;;;4971257;28;20203;-80
2022/05/27 13:57:08;;;;;;;8.77;2.22;;;19.80;56.70;;;;;;4952844;28;20210;-80
2022/05/27 13:59:47;;;;;;;4.80;2.05;;;19.70;56.00;;;;;;4990956;28;20203;-81
2022/05/27 14:02:30;;;;;;;6.97;2.50;;;19.60;57.50;;;;;;4973868;28;20223;-80
2022/05/27 14:05:20;;;;;;;6.22;2.53;;;19.50;56.60;;;;;;4964719;28;20211;-80
2022/05/27 14:08:07;;;;;;;5.88;2.00;;;19.70;57.80;;;;;;4955093;29;20230;-80
2022/05/27 14:10:54;;;;;;;5.63;2.92;;;19.70;58.20;;;;;;4952866;29;20209;-81
2022/05/27 14:16:32;;;;;;;5.45;2.25;;;19.40;59.50;;;;;;4955180;29;20193;-80
2022/05/27 14:19:10;;;;;;;7.68;2.38;;;19.30;60.20;;;;;;4955848;28;20213;-80
2022/05/27 14:24:36;;;;;;;5.82;2.22;;;18.70;62.60;;;;;;4960490;29;20198;-80
2022/05/27 14:30:02;;;;;;;7.38;2.28;;;19.00;61.40;;;;;;4955143;28;20212;-80
2022/05/27 14:32:47;;;;;;;6.30;2.22;;;19.50;60.50;;;;;;4960580;28;20200;-80
2022/05/27 14:35:22;;;;;;;10.38;2.53;;;19.20;60.70;;;;;;4970832;29;20205;-80
2022/05/27 14:37:59;;;;;;;6.28;2.45;;;19.00;61.80;;;;;;4957060;28;20226;-81
2022/05/27 14:40:40;;;;;;;8.60;2.80;;;19.00;63.00;;;;;;4961359;28;20255;-79
2022/05/27 14:43:58;;;;;;;8.45;2.63;;;18.90;64.10;;;;;;4961992;28;20212;-82
2022/05/27 14:46:27;;;;;;;6.95;2.42;;;18.70;64.40;;;;;;4953935;28;20220;-82
2022/05/27 14:49:21;;;;;;;6.15;2.67;;;19.10;65.10;;;;;;4951613;28;20221;-82
2022/05/27 14:51:52;;;;;;;4.88;2.20;;;19.30;66.20;;;;;;4963919;28;20197;-83
2022/05/27 14:54:28;;;;;;;7.40;2.72;;;19.70;65.00;;;;;;4959320;28;20758;-83
2022/05/27 14:57:19;;;;;;;6.97;2.20;;;19.60;62.40;;;;;;4955030;28;20206;-82
2022/05/27 14:59:55;;;;;;;4.82;2.17;;;19.90;63.60;;;;;;4960459;28;20213;-81
2022/05/27 15:02:28;;;;;;;8.70;2.60;;;20.30;63.50;;;;;;4965409;28;20219;-81
2022/05/27 15:04:58;;;;;;;5.13;2.15;;;19.60;64.10;;;;;;4951234;29;20221;-80
2022/05/27 15:07:41;;;;;;;5.70;2.03;;;19.60;64.00;;;;;;4955389;28;20222;-80
2022/05/27 15:10:23;;;;;;;6.40;2.88;;;19.40;64.00;;;;;;4964016;28;20200;-80
2022/05/27 15:12:52;;;;;;;9.70;3.17;;;19.00;65.00;;;;;;4950433;28;20206;-80
2022/05/27 15:15:41;;;;;;;6.78;2.38;;;19.20;64.90;;;;;;4944323;28;20205;-80
2022/05/27 15:18:13;;;;;;;6.95;2.28;;;19.60;64.60;;;;;;4946186;29;20222;-81
2022/05/27 15:20:45;;;;;;;9.15;2.75;;;20.00;61.70;;;;;;4942526;29;20648;-82
2022/05/27 15:23:23;;;;;;;5.82;2.33;;;19.40;59.40;;;;;;4940625;29;20707;-81
2022/05/27 15:33:05;;;;;;;7.57;2.40;;;19.30;59.20;;;;;;4951251;28;20213;-82
2022/05/27 15:34:16;;;;;;;6.00;2.03;;;19.50;55.60;;;;;;4956846;28;20209;-80
2022/05/27 15:36:44;;;;;;;6.28;2.03;;;19.90;55.30;;;;;;4941191;28;20216;-78
2022/05/27 15:39:11;;;;;;;8.27;2.33;;;20.00;55.20;;;;;;4951656;28;20194;-79
2022/05/27 15:41:39;;;;;;;6.00;2.10;;;20.00;53.90;;;;;;4936713;29;20197;-78
2022/05/27 15:44:07;;;;;;;6.22;2.10;;;20.00;54.20;;;;;;4930732;28;20226;-78
2022/05/27 15:46:42;;;;;;;7.10;2.42;;;19.00;55.20;;;;;;4949659;29;20210;-79
2022/05/27 15:49:10;;;;;;;8.65;2.10;;;18.80;56.80;;;;;;4946726;29;20213;-80
2022/05/27 15:51:39;;;;;;;5.82;1.92;;;19.00;57.10;;;;;;4954982;29;20684;-79
2022/05/27 15:54:07;;;;;;;5.60;2.00;;;19.30;57.60;;;;;;4941372;29;20205;-78
2022/05/27 15:56:35;;;;;;;6.65;2.25;;;19.30;57.50;;;;;;4949943;29;20206;-79
2022/05/27 15:59:04;;;;;;;6.68;2.45;;;19.00;57.60;;;;;;4934275;29;20225;-78
2022/05/27 16:01:31;;;;;;;8.52;2.63;;;18.80;58.80;;;;;;4937649;29;20210;-78
2022/05/27 16:04:01;;;;;;;6.65;2.15;;;19.10;58.70;;;;;;4952710;29;20793;-78
2022/05/27 16:06:31;;;;;;;5.47;1.90;;;19.00;58.00;;;;;;4952256;28;20198;-78
2022/05/27 16:09:00;;;;;;;6.13;1.92;;;18.60;59.20;;;;;;4956904;28;20245;-78
2022/05/27 16:11:28;;;;;;;9.40;2.25;;;18.60;60.20;;;;;;4934172;29;20279;-77
2022/05/27 16:13:55;;;;;;;6.63;2.55;;;18.80;59.90;;;;;;4935267;29;20202;-79
2022/05/27 16:19:11;;;;;;;6.78;2.40;;;18.00;62.40;;;;;;4929984;29;20189;-79
2022/05/27 16:21:39;;;;;;;6.10;2.28;;;17.80;62.90;;;;;;4941361;29;20198;-77
2022/05/27 16:24:07;;;;;;;10.77;2.15;;;17.80;63.90;;;;;;4937796;29;20222;-77
2022/05/27 16:26:34;;;;;;;6.80;2.60;;;18.00;64.70;;;;;;4953831;29;20194;-78
2022/05/27 16:29:03;;;;;;;6.70;2.30;;;18.60;63.40;;;;;;4935952;29;20224;-78
2022/05/27 16:31:30;;;;;;;5.00;2.17;;;18.80;61.60;;;;;;4950666;29;20210;-78
2022/05/27 16:34:00;;;;;;;6.97;2.10;;;18.90;60.10;;;;;;4947987;29;20202;-78
2022/05/27 16:36:29;;;;;;;8.27;2.33;;;18.90;59.70;;;;;;4945045;29;20217;-79
2022/05/27 16:38:56;;;;;;;5.40;1.77;;;18.50;60.60;;;;;;4953966;28;20237;-80
2022/05/27 16:41:24;;;;;;;6.28;2.00;;;18.10;60.80;;;;;;4957207;29;20213;-78
2022/05/27 16:43:52;;;;;;;5.78;1.98;;;17.70;62.30;;;;;;4953955;29;20217;-80
2022/05/27 16:46:20;;;;;;;6.95;1.90;;;17.50;63.40;;;;;;4943778;29;20202;-80
2022/05/27 16:48:47;;;;;;;7.03;1.65;;;17.30;65.30;;;;;;4931894;29;20229;-80
2022/05/27 16:51:16;;;;;;;6.78;2.17;;;17.60;67.50;;;;;;4936195;29;20208;-80
2022/05/27 16:53:49;;;;;;;6.90;2.08;;;17.80;65.20;;;;;;4958434;28;20198;-80
2022/05/27 16:56:18;;;;;;;7.05;1.95;;;17.70;64.10;;;;;;4956343;28;20209;-80
2022/05/27 16:58:45;;;;;;;4.32;1.90;;;17.50;64.10;;;;;;4937957;29;20221;-80
2022/05/27 17:01:15;;;;;;;5.75;1.88;;;17.70;64.70;;;;;;4954556;29;20201;-80
2022/05/27 17:03:43;;;;;;;6.60;2.08;;;17.60;64.90;;;;;;4937069;29;20217;-78
2022/05/27 17:06:12;;;;;;;6.32;1.92;;;17.60;64.70;;;;;;4949766;29;20213;-78
2022/05/27 17:08:40;;;;;;;7.85;2.35;;;17.50;64.10;;;;;;4937615;29;20222;-80
2022/05/27 17:11:08;;;;;;;5.57;1.52;;;17.60;64.50;;;;;;4934372;29;20206;-80
2022/05/27 17:13:37;;;;;;;5.07;1.98;;;17.40;64.90;;;;;;4947549;29;20197;-80
2022/05/27 17:16:05;;;;;;;6.05;2.03;;;17.40;66.50;;;;;;4944411;28;20206;-78
2022/05/27 17:18:32;;;;;;;6.88;2.45;;;17.10;67.40;;;;;;4936665;29;20228;-80
2022/05/27 17:21:00;;;;;;;7.68;1.98;;;17.10;68.30;;;;;;4935103;29;20217;-80
2022/05/27 17:23:27;;;;;;;8.82;2.05;;;17.10;67.60;;;;;;4950279;28;20688;-80
2022/05/27 17:25:59;;;;;;;6.47;2.05;;;17.30;67.30;;;;;;4947614;28;20208;-81
2022/05/27 17:28:28;;;;;;;6.50;1.98;;;17.20;67.30;;;;;;4934326;29;20228;-81
2022/05/27 17:30:55;;;;;;;4.03;2.10;;;17.20;67.10;;;;;;4961961;28;20201;-84
2022/05/27 17:33:23;;;;;;;4.57;1.85;;;17.40;66.60;;;;;;4956539;29;20202;-84
2022/05/27 17:35:50;;;;;;;6.20;1.65;;;17.40;67.30;;;;;;4941777;29;20578;-84
2022/05/27 17:38:18;;;;;;;4.35;1.48;;;17.50;67.20;;;;;;4956986;28;20614;-84
2022/05/27 17:40:49;;;;;;;6.00;2.35;;;17.40;67.70;;;;;;4938091;29;20202;-83
2022/05/27 17:43:16;;;;;;;5.97;2.50;;;17.30;68.60;;;;;;4949387;29;20229;-83
2022/05/27 17:45:47;;;;;;;6.03;1.90;;;17.10;68.50;;;;;;4943875;29;20206;-83
2022/05/27 17:53:47;;;;;;;7.82;2.10;;;16.90;69.10;;;;;;4955186;29;20198;-82
2022/05/27 17:56:15;;;;;;;6.18;2.10;;;16.70;70.30;;;;;;4956973;28;20213;-82
2022/05/27 17:58:42;;;;;;;7.32;2.38;;;17.00;71.20;;;;;;4943883;28;20265;-83
2022/05/27 18:01:14;;;;;;;4.28;2.05;;;17.00;72.10;;;;;;4932564;29;20210;-80
2022/05/27 18:03:42;;;;;;;5.00;2.05;;;16.90;73.10;;;;;;4953301;29;20205;-82
2022/05/27 18:06:10;;;;;;;7.70;1.65;;;16.80;73.70;;;;;;4935738;29;20194;-82
2022/05/27 18:08:37;;;;;;;6.53;1.98;;;16.70;74.50;;;;;;4948466;29;20232;-80
2022/05/27 18:11:05;;;;;;;8.38;2.08;;;16.50;74.60;;;;;;4936985;29;20206;-80
2022/05/27 18:13:36;;;;;;;5.13;2.00;;;16.50;75.40;;;;;;4934298;29;20700;-80
2022/05/27 18:16:08;;;;;;;6.55;1.80;;;16.40;76.30;;;;;;4950575;29;20205;-79
2022/05/27 18:18:37;;;;;;;6.18;1.85;;;16.40;76.90;;;;;;4941230;28;20225;-80
2022/05/27 18:21:04;;;;;;;5.00;1.80;;;16.30;77.40;;;;;;4948129;29;20201;-80
2022/05/27 18:23:31;;;;;;;4.95;2.00;;;16.40;78.80;;;;;;4955417;29;20234;-80
2022/05/27 18:26:05;;;;;;;5.53;1.65;;;16.40;78.30;;;;;;4938374;29;20563;-80
2022/05/27 18:28:33;;;;;;;7.82;2.28;;;16.40;78.70;;;;;;4953012;28;20233;-80
2022/05/27 18:31:02;;;;;;;7.60;2.22;;;16.60;78.80;;;;;;4955405;29;20209;-80
2022/05/27 18:33:30;;;;;;;3.72;1.90;;;16.80;77.90;;;;;;4954324;29;20209;-80
2022/05/27 18:35:58;;;;;;;6.30;1.80;;;16.80;77.10;;;;;;4949467;28;20207;-80
2022/05/27 18:38:26;;;;;;;4.70;1.63;;;16.80;77.50;;;;;;4950160;28;20221;-80
2022/05/27 18:40:53;;;;;;;5.47;1.92;;;16.90;77.20;;;;;;4951331;29;20201;-80
2022/05/27 18:43:21;;;;;;;7.38;2.35;;;16.70;77.70;;;;;;4948572;29;20549;-80
2022/05/27 18:45:49;;;;;;;7.15;2.22;;;16.60;78.00;;;;;;4957876;29;20202;-80